createdAt,value
2022-10-12T00:00:44.795Z,16.57
2022-10-12T00:03:13.402Z,17.67
2022-10-12T00:05:42.877Z,16.53
2022-10-12T00:08:10.884Z,17.40
2022-10-12T00:10:42.157Z,18.10
2022-10-12T00:13:10.289Z,19.97
2022-10-12T00:15:39.213Z,19.10
2022-10-12T00:18:07.488Z,20.67
2022-10-12T00:20:35.713Z,20.07
2022-10-12T00:23:05.112Z,18.50
2022-10-12T00:25:36.539Z,19.67
2022-10-12T00:28:04.916Z,18.87
2022-10-12T00:30:33.181Z,18.90
2022-10-12T00:33:01.170Z,20.33
2022-10-12T00:35:30.725Z,21.37
2022-10-12T00:37:58.659Z,19.73
2022-10-12T00:40:27.988Z,20.80
2022-10-12T00:42:55.896Z,19.03
2022-10-12T00:45:26.173Z,20.30
2022-10-12T00:47:58.141Z,19.10
2022-10-12T00:50:28.636Z,19.20
2022-10-12T00:53:01.036Z,19.23
2022-10-12T00:55:33.753Z,17.50
2022-10-12T00:58:02.608Z,15.30
2022-10-12T01:00:30.581Z,16.47
2022-10-12T01:02:59.287Z,15.57
2022-10-12T01:05:27.478Z,16.17
2022-10-12T01:07:55.475Z,15.93
2022-10-12T01:10:23.384Z,15.43
2022-10-12T01:12:52.732Z,15.27
2022-10-12T01:15:20.843Z,16.23
2022-10-12T01:17:59.646Z,15.67
2022-10-12T01:20:44.011Z,16.47
2022-10-12T01:23:37.308Z,15.33
2022-10-12T01:26:24.226Z,17.70
2022-10-12T01:29:04.667Z,16.70
2022-10-12T01:31:40.391Z,15.73
2022-10-12T01:34:14.111Z,15.97
2022-10-12T01:36:45.995Z,17.50
2022-10-12T01:39:22.407Z,23.73
2022-10-12T01:41:55.280Z,25.20
2022-10-12T01:44:24.615Z,25.23
2022-10-12T01:46:56.151Z,23.30
2022-10-12T01:49:28.528Z,23.30
2022-10-12T01:52:22.287Z,24.67
2022-10-12T01:55:11.622Z,23.80
2022-10-12T01:57:49.231Z,25.33
2022-10-12T02:00:18.051Z,22.90
2022-10-12T02:02:56.827Z,22.50
2022-10-12T02:05:33.382Z,24.70
2022-10-12T02:08:06.700Z,28.10
2022-10-12T02:10:42.234Z,27.47
2022-10-12T02:13:14.206Z,27.33
2022-10-12T02:15:44.804Z,26.53
2022-10-12T02:18:19.814Z,27.17
2022-10-12T02:20:49.821Z,28.77
2022-10-12T02:23:19.286Z,26.37
2022-10-12T02:25:48.012Z,27.70
2022-10-12T02:28:20.473Z,28.73
2022-10-12T02:30:54.866Z,28.47
2022-10-12T02:33:30.135Z,29.00
2022-10-12T02:36:02.697Z,28.43
2022-10-12T02:38:35.402Z,29.57
2022-10-12T02:41:06.674Z,29.00
2022-10-12T02:43:38.904Z,29.37
2022-10-12T02:46:10.434Z,30.57
2022-10-12T02:48:41.449Z,29.33
2022-10-12T02:51:11.488Z,30.00
2022-10-12T02:53:39.886Z,27.50
2022-10-12T02:56:12.207Z,28.23
2022-10-12T02:58:40.437Z,29.57
2022-10-12T03:01:08.631Z,29.40
2022-10-12T03:03:36.609Z,28.73
2022-10-12T03:06:06.185Z,27.33
2022-10-12T03:08:34.210Z,24.33
2022-10-12T03:11:03.590Z,23.27
2022-10-12T03:13:31.953Z,22.90
2022-10-12T03:16:03.602Z,21.23
2022-10-12T03:18:32.015Z,20.60
2022-10-12T03:20:59.981Z,23.70
2022-10-12T03:23:29.298Z,22.30
2022-10-12T03:25:57.309Z,20.40
2022-10-12T03:28:25.333Z,21.07
2022-10-12T03:30:53.232Z,21.43
2022-10-12T03:33:21.317Z,22.60
2022-10-12T03:35:49.376Z,20.37
2022-10-12T03:38:18.417Z,22.57
2022-10-12T03:40:48.160Z,22.17
2022-10-12T03:43:16.113Z,19.87
2022-10-12T03:45:44.289Z,22.13
2022-10-12T03:48:12.213Z,20.60
2022-10-12T03:50:40.264Z,20.77
2022-10-12T03:53:08.620Z,18.53
2022-10-12T03:55:36.620Z,20.63
2022-10-12T03:58:05.948Z,18.70
2022-10-12T04:00:33.863Z,18.13
2022-10-12T04:03:02.172Z,19.53
2022-10-12T04:05:30.248Z,19.37
2022-10-12T04:07:58.439Z,19.57
2022-10-12T04:10:26.467Z,20.33
2022-10-12T04:12:54.370Z,20.43
2022-10-12T04:15:23.668Z,20.17
2022-10-12T04:17:51.565Z,20.03
2022-10-12T04:20:19.611Z,18.50
2022-10-12T04:22:47.513Z,18.80
2022-10-12T04:25:15.424Z,19.27
2022-10-12T04:27:43.340Z,18.50
2022-10-12T04:30:12.616Z,18.90
2022-10-12T04:32:41.863Z,18.77
2022-10-12T04:35:10.131Z,18.67
2022-10-12T04:37:38.419Z,18.80
2022-10-12T04:40:07.699Z,19.33
2022-10-12T04:42:35.602Z,17.80
2022-10-12T04:45:03.532Z,18.27
2022-10-12T04:47:31.392Z,18.70
2022-10-12T04:50:00.637Z,18.30
2022-10-12T04:52:28.708Z,17.03
2022-10-12T04:54:56.623Z,19.20
2022-10-12T04:57:25.703Z,16.83
2022-10-12T04:59:53.592Z,18.83
2022-10-12T05:02:21.756Z,16.33
2022-10-12T05:04:50.039Z,17.50
2022-10-12T05:07:19.422Z,18.23
2022-10-12T05:09:47.324Z,16.77
2022-10-12T05:12:15.231Z,15.43
2022-10-12T05:14:44.247Z,17.17
2022-10-12T05:17:12.363Z,17.47
2022-10-12T05:19:40.275Z,16.53
2022-10-12T05:22:08.172Z,17.83
2022-10-12T05:24:37.459Z,15.90
2022-10-12T05:27:05.404Z,16.43
2022-10-12T05:29:33.299Z,15.37
2022-10-12T05:32:01.279Z,16.23
2022-10-12T05:34:29.186Z,15.13
2022-10-12T05:36:58.288Z,15.07
2022-10-12T05:39:26.235Z,15.87
2022-10-12T05:41:55.939Z,16.13
2022-10-12T05:44:23.835Z,14.67
2022-10-12T05:46:51.787Z,14.63
2022-10-12T05:49:19.670Z,15.43
2022-10-12T05:51:47.680Z,15.20
2022-10-12T05:54:15.676Z,16.07
2022-10-12T05:56:43.602Z,15.77
2022-10-12T05:59:13.329Z,15.97
2022-10-12T06:01:41.429Z,15.77
2022-10-12T06:04:09.378Z,15.23
2022-10-12T06:06:37.481Z,17.27
2022-10-12T06:09:05.452Z,16.63
2022-10-12T06:11:36.290Z,14.77
2022-10-12T06:14:04.750Z,15.23
2022-10-12T06:16:34.047Z,15.30
2022-10-12T06:19:01.941Z,15.17
2022-10-12T06:21:34.312Z,14.13
2022-10-12T06:24:03.239Z,14.10
2022-10-12T06:26:31.430Z,13.03
2022-10-12T06:29:00.829Z,13.00
2022-10-12T06:31:29.262Z,12.73
2022-10-12T06:33:58.490Z,12.53
2022-10-12T06:36:26.597Z,12.03
2022-10-12T06:38:54.701Z,12.80
2022-10-12T06:41:22.613Z,13.13
2022-10-12T06:43:50.509Z,12.77
2022-10-12T06:46:18.545Z,14.03
2022-10-12T06:48:46.530Z,13.97
2022-10-12T06:51:16.037Z,15.60
2022-10-12T06:53:44.347Z,14.67
2022-10-12T06:56:13.218Z,15.23
2022-10-12T06:58:42.020Z,14.00
2022-10-12T07:01:11.074Z,13.87
2022-10-12T07:03:39.128Z,14.33
2022-10-12T07:06:09.224Z,15.03
2022-10-12T07:08:38.805Z,14.33
2022-10-12T07:11:08.862Z,14.77
2022-10-12T07:13:37.110Z,14.00
2022-10-12T07:16:05.564Z,12.47
2022-10-12T07:18:33.593Z,14.10
2022-10-12T07:21:02.997Z,14.37
2022-10-12T07:23:31.624Z,12.37
2022-10-12T07:26:00.988Z,11.73
2022-10-12T07:28:29.248Z,11.47
2022-10-12T07:31:02.347Z,11.23
2022-10-12T07:33:34.108Z,11.53
2022-10-12T07:36:13.892Z,10.50
2022-10-12T07:38:45.151Z,9.63
2022-10-12T07:41:15.371Z,9.23
2022-10-12T07:43:43.761Z,10.17
2022-10-12T07:46:12.020Z,8.60
2022-10-12T07:48:44.530Z,8.20
2022-10-12T07:51:15.312Z,8.37
2022-10-12T07:53:43.238Z,7.93
2022-10-12T07:56:15.931Z,7.30
2022-10-12T07:58:44.450Z,7.47
2022-10-12T08:01:12.728Z,7.60
2022-10-12T08:03:40.767Z,8.27
2022-10-12T08:06:13.042Z,8.73
2022-10-12T08:08:41.303Z,7.90
2022-10-12T08:11:09.560Z,8.57
2022-10-12T08:13:39.151Z,7.53
2022-10-12T08:16:10.698Z,8.97
2022-10-12T08:18:38.688Z,8.07
2022-10-12T08:21:08.131Z,8.63
2022-10-12T08:23:37.148Z,8.50
2022-10-12T08:26:06.425Z,8.00
2022-10-12T08:28:35.103Z,8.17
2022-10-12T08:31:09.052Z,9.00
2022-10-12T08:33:36.987Z,7.93
2022-10-12T08:36:06.669Z,8.47
2022-10-12T08:38:35.390Z,9.13
2022-10-12T08:41:15.511Z,8.67
2022-10-12T08:44:01.835Z,9.87
2022-10-12T08:46:31.610Z,9.73
2022-10-12T08:49:05.151Z,10.17
2022-10-12T08:51:46.907Z,10.17
2022-10-12T08:54:16.310Z,9.10
2022-10-12T08:56:45.498Z,9.03
2022-10-12T08:59:15.073Z,8.40
2022-10-12T09:02:03.048Z,10.27
2022-10-12T09:04:52.518Z,7.53
2022-10-12T09:07:26.012Z,7.97
2022-10-12T09:10:04.268Z,6.67
2022-10-12T09:12:45.236Z,7.07
2022-10-12T09:15:17.190Z,6.97
2022-10-12T09:17:50.853Z,6.83
2022-10-12T09:20:21.636Z,7.00
2022-10-12T09:22:51.881Z,6.03
2022-10-12T09:25:23.779Z,5.97
2022-10-12T09:27:52.516Z,6.67
2022-10-12T09:30:22.013Z,5.23
2022-10-12T09:33:15.683Z,4.97
2022-10-12T09:35:45.738Z,4.93
2022-10-12T09:38:13.865Z,5.30
2022-10-12T09:40:41.844Z,5.20
2022-10-12T09:43:10.488Z,4.50
2022-10-12T09:45:39.355Z,4.23
2022-10-12T09:48:14.983Z,4.17
2022-10-12T09:50:46.650Z,4.33
2022-10-12T09:53:31.258Z,4.20
2022-10-12T09:56:03.596Z,3.67
2022-10-12T09:58:34.579Z,4.00
2022-10-12T10:01:23.945Z,3.73
2022-10-12T10:04:10.887Z,3.53
2022-10-12T10:06:40.463Z,4.10
2022-10-12T10:09:30.803Z,3.20
2022-10-12T10:12:12.016Z,2.30
2022-10-12T10:14:42.657Z,2.70
2022-10-12T10:17:15.097Z,3.13
2022-10-12T10:19:50.575Z,3.13
2022-10-12T10:22:18.984Z,2.80
2022-10-12T10:24:55.236Z,2.77
2022-10-12T10:27:37.887Z,2.40
2022-10-12T10:30:40.602Z,2.17
2022-10-12T10:33:19.957Z,2.10
2022-10-12T10:36:00.580Z,2.50
2022-10-12T10:38:29.553Z,2.40
2022-10-12T10:40:58.633Z,2.53
2022-10-12T10:43:29.627Z,2.40
2022-10-12T10:46:00.929Z,2.33
2022-10-12T10:48:31.517Z,2.03
2022-10-12T10:51:02.916Z,1.90
2022-10-12T10:53:34.221Z,1.97
2022-10-12T10:56:06.984Z,2.00
2022-10-12T10:58:38.786Z,2.00
2022-10-12T11:01:16.434Z,2.10
2022-10-12T11:03:54.523Z,2.03
2022-10-12T11:06:33.509Z,1.90
2022-10-12T11:09:07.287Z,2.00
2022-10-12T11:11:39.172Z,2.10
2022-10-12T11:14:15.560Z,1.80
2022-10-12T11:16:48.304Z,2.00
2022-10-12T11:19:25.980Z,2.27
2022-10-12T11:21:59.730Z,2.50
2022-10-12T11:24:33.504Z,2.10
2022-10-12T11:27:07.575Z,2.60
2022-10-12T11:29:36.835Z,2.50
2022-10-12T11:32:08.766Z,2.53
2022-10-12T11:34:49.457Z,2.30
2022-10-12T11:37:21.752Z,2.13
2022-10-12T11:39:53.764Z,2.33
2022-10-12T11:42:30.098Z,2.03
2022-10-12T11:45:00.351Z,2.30
2022-10-12T11:47:37.091Z,2.13
2022-10-12T11:50:08.428Z,1.90
2022-10-12T11:52:41.855Z,1.93
2022-10-12T11:55:28.238Z,2.03
2022-10-12T11:57:59.716Z,2.60
2022-10-12T12:00:37.135Z,3.03
2022-10-12T12:03:17.180Z,2.57
2022-10-12T12:05:45.171Z,2.57
2022-10-12T12:08:24.283Z,2.00
2022-10-12T12:10:55.092Z,2.03
2022-10-12T12:13:27.079Z,2.30
2022-10-12T12:16:34.026Z,2.20
2022-10-12T12:19:17.100Z,2.17
2022-10-12T12:22:20.748Z,1.80
2022-10-12T12:25:21.464Z,2.53
2022-10-12T12:27:53.202Z,2.40
2022-10-12T12:30:37.409Z,2.10
2022-10-12T12:33:26.302Z,3.63
2022-10-12T12:35:58.049Z,2.60
2022-10-12T12:38:29.959Z,2.80
2022-10-12T12:41:11.994Z,2.03
2022-10-12T12:43:58.362Z,2.20
2022-10-12T12:46:42.521Z,1.77
2022-10-12T12:49:27.049Z,2.40
2022-10-12T12:51:57.890Z,2.50
2022-10-12T12:54:26.550Z,2.27
2022-10-12T12:57:21.264Z,2.40
2022-10-12T13:00:15.578Z,2.50
2022-10-12T13:03:20.070Z,2.03
2022-10-12T13:06:35.235Z,2.17
2022-10-12T13:09:35.185Z,2.57
2022-10-12T13:12:32.016Z,2.30
2022-10-12T13:15:24.451Z,2.43
2022-10-12T13:18:14.523Z,2.30
2022-10-12T13:20:51.605Z,3.40
2022-10-12T13:23:22.768Z,3.67
2022-10-12T13:25:57.052Z,2.70
2022-10-12T13:28:30.133Z,2.97
2022-10-12T13:31:02.879Z,3.83
2022-10-12T13:33:34.864Z,3.47
2022-10-12T13:36:07.295Z,3.87
2022-10-12T13:38:38.543Z,4.33
2022-10-12T13:41:09.687Z,4.13
2022-10-12T13:43:44.909Z,2.70
2022-10-12T13:46:14.045Z,2.47
2022-10-12T13:48:59.238Z,3.20
2022-10-12T13:51:30.364Z,2.90
2022-10-12T13:53:58.739Z,3.00
2022-10-12T13:56:29.240Z,2.87
2022-10-12T13:59:04.263Z,2.83
2022-10-12T14:01:35.551Z,2.80
2022-10-12T14:04:04.641Z,2.47
2022-10-12T14:06:34.526Z,3.00
2022-10-12T14:09:08.683Z,2.67
2022-10-12T14:11:37.168Z,2.60
2022-10-12T14:14:07.554Z,2.83
2022-10-12T14:16:35.570Z,2.67
2022-10-12T14:19:19.285Z,2.90
2022-10-12T14:21:49.327Z,3.70
2022-10-12T14:24:20.176Z,3.83
2022-10-12T14:26:55.532Z,2.97
2022-10-12T14:29:35.751Z,2.80
2022-10-12T14:32:05.840Z,3.57
2022-10-12T14:34:36.986Z,3.80
2022-10-12T14:37:06.865Z,4.07
2022-10-12T14:39:35.178Z,4.53
2022-10-12T14:42:04.930Z,3.20
2022-10-12T14:44:44.522Z,3.60
2022-10-12T14:47:19.055Z,2.63
2022-10-12T14:49:48.357Z,2.50
2022-10-12T14:52:21.301Z,2.40
2022-10-12T14:54:52.601Z,3.17
2022-10-12T14:57:21.696Z,2.57
2022-10-12T14:59:51.166Z,2.50
2022-10-12T15:02:21.547Z,2.40
2022-10-12T15:04:49.767Z,3.47
2022-10-12T15:07:20.048Z,3.13
2022-10-12T15:09:48.179Z,2.87
2022-10-12T15:12:18.383Z,2.63
2022-10-12T15:14:46.672Z,3.90
2022-10-12T15:17:17.566Z,16.10
2022-10-12T15:19:47.472Z,19.87
2022-10-12T15:22:18.057Z,9.43
2022-10-12T15:24:46.345Z,15.97
2022-10-12T15:27:14.735Z,48.40
2022-10-12T15:29:42.920Z,47.67
2022-10-12T15:32:12.812Z,36.80
2022-10-12T15:34:42.377Z,19.37
2022-10-12T15:37:10.549Z,25.57
2022-10-12T15:39:38.621Z,19.07
2022-10-12T15:42:06.736Z,8.60
2022-10-12T15:44:41.473Z,5.03
2022-10-12T15:47:10.454Z,4.77
2022-10-12T15:49:38.675Z,4.63
2022-10-12T15:52:10.900Z,4.60
2022-10-12T15:54:38.826Z,3.07
2022-10-12T15:57:07.631Z,3.50
2022-10-12T15:59:36.110Z,3.90
2022-10-12T16:02:04.115Z,5.23
2022-10-12T16:04:31.995Z,5.20
2022-10-12T16:07:01.325Z,5.87
2022-10-12T16:09:30.567Z,4.97
2022-10-12T16:11:58.468Z,5.10
2022-10-12T16:14:27.066Z,6.07
2022-10-12T16:16:54.976Z,5.50
2022-10-12T16:19:22.848Z,5.53
2022-10-12T16:21:50.764Z,5.93
2022-10-12T16:24:18.811Z,5.57
2022-10-12T16:26:49.877Z,6.17
2022-10-12T16:29:17.823Z,6.10
2022-10-12T16:31:45.819Z,6.10
2022-10-12T16:34:13.883Z,6.03
2022-10-12T16:36:41.814Z,6.60
2022-10-12T16:39:09.703Z,7.17
2022-10-12T16:41:37.613Z,7.53
2022-10-12T16:44:06.896Z,6.77
2022-10-12T16:46:36.912Z,12.03
2022-10-12T16:49:04.882Z,7.03
2022-10-12T16:51:32.779Z,6.77
2022-10-12T16:54:00.838Z,6.97
2022-10-12T16:56:28.780Z,6.93
2022-10-12T16:58:56.643Z,7.00
2022-10-12T17:01:25.964Z,6.97
2022-10-12T17:03:54.754Z,7.47
2022-10-12T17:06:22.654Z,6.33
2022-10-12T17:08:50.538Z,6.40
2022-10-12T17:11:18.454Z,6.93
2022-10-12T17:13:49.131Z,6.83
2022-10-12T17:16:35.834Z,8.97
2022-10-12T17:19:05.232Z,8.10
2022-10-12T17:21:33.267Z,7.70
2022-10-12T17:24:02.530Z,6.67
2022-10-12T17:26:30.775Z,8.17
2022-10-12T17:28:58.665Z,8.37
2022-10-12T17:31:27.038Z,7.73
2022-10-12T17:33:55.257Z,8.00
2022-10-12T17:36:28.245Z,8.23
2022-10-12T17:38:57.388Z,8.67
2022-10-12T17:41:25.770Z,8.93
2022-10-12T17:43:53.866Z,9.73
2022-10-12T17:46:22.911Z,10.30
2022-10-12T17:48:51.161Z,10.77
2022-10-12T17:51:19.387Z,11.13
2022-10-12T17:53:48.726Z,18.07
2022-10-12T17:56:16.733Z,17.53
2022-10-12T17:58:44.685Z,18.03
2022-10-12T18:01:15.269Z,17.83
2022-10-12T18:03:46.526Z,13.93
2022-10-12T18:06:16.383Z,15.67
2022-10-12T18:08:44.684Z,15.87
2022-10-12T18:11:14.924Z,13.27
2022-10-12T18:13:47.258Z,17.93
2022-10-12T18:16:16.055Z,14.83
2022-10-12T18:18:44.328Z,20.30
2022-10-12T18:21:14.789Z,22.63
2022-10-12T18:23:42.919Z,18.83
2022-10-12T18:26:13.324Z,20.20
2022-10-12T18:28:41.954Z,27.53
2022-10-12T18:31:16.090Z,20.80
2022-10-12T18:33:43.980Z,21.20
2022-10-12T18:36:12.828Z,21.93
2022-10-12T18:38:40.776Z,21.80
2022-10-12T18:41:15.399Z,22.50
2022-10-12T18:43:43.425Z,22.13
2022-10-12T18:46:13.454Z,20.33
2022-10-12T18:48:41.386Z,18.20
2022-10-12T18:51:20.609Z,15.27
2022-10-12T18:53:48.904Z,16.10
2022-10-12T18:56:19.176Z,17.87
2022-10-12T18:58:47.201Z,16.40
2022-10-12T19:01:17.674Z,15.17
2022-10-12T19:03:45.985Z,14.47
2022-10-12T19:06:16.857Z,15.37
2022-10-12T19:08:45.082Z,16.40
2022-10-12T19:11:14.220Z,15.27
2022-10-12T19:13:43.471Z,14.67
2022-10-12T19:16:14.607Z,14.50
2022-10-12T19:18:43.439Z,13.80
2022-10-12T19:21:13.940Z,13.47
2022-10-12T19:23:42.599Z,14.40
2022-10-12T19:26:13.816Z,14.47
2022-10-12T19:28:43.523Z,14.93
2022-10-12T19:31:14.711Z,15.73
2022-10-12T19:33:43.147Z,14.37
2022-10-12T19:36:12.701Z,14.57
2022-10-12T19:38:41.204Z,14.03
2022-10-12T19:41:09.929Z,15.07
2022-10-12T19:43:38.777Z,13.70
2022-10-12T19:46:10.130Z,14.87
2022-10-12T19:48:39.148Z,14.93
2022-10-12T19:51:08.993Z,14.60
2022-10-12T19:53:36.976Z,15.40
2022-10-12T19:56:07.537Z,13.77
2022-10-12T19:58:35.464Z,13.97
2022-10-12T20:01:04.302Z,13.90
2022-10-12T20:03:33.920Z,14.63
2022-10-12T20:06:02.224Z,12.43
2022-10-12T20:08:30.147Z,13.10
2022-10-12T20:10:58.045Z,13.80
2022-10-12T20:13:25.968Z,15.17
2022-10-12T20:15:54.108Z,14.30
2022-10-12T20:18:22.349Z,13.87
2022-10-12T20:20:51.784Z,13.10
2022-10-12T20:23:19.656Z,14.03
2022-10-12T20:25:49.396Z,12.10
2022-10-12T20:28:18.228Z,10.63
2022-10-12T20:30:46.636Z,11.77
2022-10-12T20:33:15.499Z,10.87
2022-10-12T20:35:47.552Z,10.43
2022-10-12T20:38:17.143Z,11.97
2022-10-12T20:40:45.912Z,11.17
2022-10-12T20:43:13.856Z,12.40
2022-10-12T20:45:41.787Z,12.20
2022-10-12T20:48:09.915Z,11.57
2022-10-12T20:50:38.465Z,11.97
2022-10-12T20:53:06.404Z,11.70
2022-10-12T20:55:35.683Z,12.27
2022-10-12T20:58:03.627Z,11.93
2022-10-12T21:00:31.729Z,11.23
2022-10-12T21:02:59.657Z,11.80
2022-10-12T21:05:27.552Z,10.83
2022-10-12T21:07:55.475Z,11.27
2022-10-12T21:10:23.376Z,10.83
2022-10-12T21:12:52.659Z,11.00
2022-10-12T21:15:20.627Z,9.87
2022-10-12T21:17:48.567Z,11.10
2022-10-12T21:20:16.692Z,11.40
2022-10-12T21:22:46.552Z,11.27
2022-10-12T21:25:14.645Z,11.10
2022-10-12T21:27:42.580Z,12.30
2022-10-12T21:30:12.632Z,11.90
2022-10-12T21:32:40.513Z,11.90
2022-10-12T21:35:08.968Z,12.13
2022-10-12T21:37:36.929Z,12.70
2022-10-12T21:40:05.465Z,13.93
2022-10-12T21:42:33.361Z,13.53
2022-10-12T21:45:01.280Z,12.40
2022-10-12T21:47:30.881Z,13.60
2022-10-12T21:49:58.900Z,14.87
2022-10-12T21:52:27.016Z,15.43
2022-10-12T21:54:55.463Z,16.00
2022-10-12T21:57:23.536Z,17.43
2022-10-12T21:59:51.487Z,19.37
2022-10-12T22:02:19.706Z,18.13
2022-10-12T22:04:49.420Z,18.43
2022-10-12T22:07:17.322Z,19.20
2022-10-12T22:09:45.275Z,17.27
2022-10-12T22:12:13.153Z,18.00
2022-10-12T22:14:41.747Z,16.53
2022-10-12T22:17:09.818Z,17.63
2022-10-12T22:19:37.971Z,18.43
2022-10-12T22:22:07.210Z,18.27
2022-10-12T22:24:35.167Z,16.80
2022-10-12T22:27:03.122Z,17.67
2022-10-12T22:29:31.622Z,16.07
2022-10-12T22:31:59.698Z,16.83
2022-10-12T22:34:29.086Z,15.90
2022-10-12T22:36:57.154Z,17.83
2022-10-12T22:39:26.997Z,15.97
2022-10-12T22:41:55.311Z,18.00
2022-10-12T22:44:23.385Z,18.67
2022-10-12T22:46:51.294Z,14.43
2022-10-12T22:49:19.270Z,14.80
2022-10-12T22:51:47.137Z,16.40
2022-10-12T22:54:15.041Z,16.27
2022-10-12T22:56:44.369Z,16.67
2022-10-12T22:59:14.714Z,15.70
2022-10-12T23:01:42.630Z,15.27
2022-10-12T23:04:10.642Z,15.77
2022-10-12T23:06:38.551Z,15.33
2022-10-12T23:09:06.460Z,16.77
2022-10-12T23:11:34.397Z,15.10
2022-10-12T23:14:03.630Z,16.83
2022-10-12T23:16:33.052Z,15.60
2022-10-12T23:19:02.673Z,17.00
2022-10-12T23:21:32.160Z,16.40
2022-10-12T23:24:01.340Z,15.67
2022-10-12T23:26:30.518Z,17.07
2022-10-12T23:28:58.773Z,16.20
2022-10-12T23:31:30.554Z,15.83
2022-10-12T23:34:00.182Z,15.77
2022-10-12T23:36:28.648Z,15.00
2022-10-12T23:38:56.746Z,14.03
2022-10-12T23:41:24.624Z,13.87
2022-10-12T23:43:52.520Z,15.33
2022-10-12T23:46:20.436Z,13.80
2022-10-12T23:48:49.768Z,13.57
2022-10-12T23:51:17.830Z,14.53
2022-10-12T23:53:46.049Z,14.60
2022-10-12T23:56:14.173Z,12.80
2022-10-12T23:58:42.256Z,14.20
